Time;durP1;ratioP1;P1;durP2;ratioP2;P2;SDS_P1;SDS_P2;PMS_P1;PMS_P2;Temp;Humidity;BMP_temperature;BMP_pressure;BME280_temperature;BME280_humidity;BME280_pressure;Samples;Min_cycle;Max_cycle;Signal;HPM_P1;HPM_P2
2023/01/24 00:00:34;;;;;;;31.48;14.85;;;;;;;;;;6045553;19;20530;-74
2023/01/24 00:02:40;;;;;;;31.80;14.32;;;;;;;;;;6004062;19;20317;-74
2023/01/24 00:04:48;;;;;;;27.40;12.75;;;;;;;;;;6024532;19;20283;-74
2023/01/24 00:06:54;;;;;;;26.10;13.23;;;;;;;;;;6047913;19;20011;-74
2023/01/24 00:09:01;;;;;;;26.38;13.43;;;;;;;;;;6049131;19;20500;-74
2023/01/24 00:11:14;;;;;;;33.03;14.73;;;;;;;;;;6026495;19;20711;-75
2023/01/24 00:13:23;;;;;;;29.13;13.18;;;;;;;;;;6019904;19;20052;-73
2023/01/24 00:15:30;;;;;;;27.00;13.02;;;;;;;;;;6047765;19;20264;-74
2023/01/24 00:17:37;;;;;;;25.35;12.55;;;;;;;;;;6048182;19;20192;-74
2023/01/24 00:19:58;;;;;;;30.67;13.77;;;;;;;;;;6027773;19;20050;-74
2023/01/24 00:22:18;;;;;;;27.80;14.27;;;;;;;;;;6047877;19;20011;-74
2023/01/24 00:24:28;;;;;;;27.30;13.07;;;;;;;;;;6023408;19;20306;-75
2023/01/24 00:26:50;;;;;;;34.40;14.25;;;;;;;;;;6041168;19;20427;-75
2023/01/24 00:29:04;;;;;;;26.60;12.48;;;;;;;;;;6027428;19;20717;-73
2023/01/24 00:31:14;;;;;;;25.80;12.70;;;;;;;;;;6044342;19;20367;-73
2023/01/24 00:33:21;;;;;;;29.48;13.40;;;;;;;;;;6019672;19;20404;-75
2023/01/24 00:35:28;;;;;;;29.10;13.20;;;;;;;;;;6020649;19;20019;-75
2023/01/24 00:37:36;;;;;;;29.67;14.18;;;;;;;;;;6002489;19;20308;-75
2023/01/24 00:39:51;;;;;;;32.20;13.23;;;;;;;;;;6047736;19;20489;-75
2023/01/24 00:42:05;;;;;;;28.27;12.45;;;;;;;;;;6024826;19;20018;-75
2023/01/24 00:44:14;;;;;;;26.60;12.50;;;;;;;;;;5982949;19;20023;-74
2023/01/24 00:46:23;;;;;;;30.48;14.57;;;;;;;;;;5997814;19;20011;-75
2023/01/24 00:48:31;;;;;;;29.48;13.95;;;;;;;;;;6044902;19;20034;-74
2023/01/24 00:50:37;;;;;;;33.00;14.05;;;;;;;;;;6044249;19;20029;-75
2023/01/24 00:52:44;;;;;;;29.08;13.70;;;;;;;;;;6043735;19;20007;-74
2023/01/24 00:54:55;;;;;;;28.40;13.90;;;;;;;;;;6046263;19;20018;-74
2023/01/24 00:57:07;;;;;;;29.23;12.95;;;;;;;;;;6045870;19;20018;-74
2023/01/24 00:59:18;;;;;;;27.27;13.15;;;;;;;;;;6013134;19;20336;-74
2023/01/24 01:01:30;;;;;;;35.17;13.98;;;;;;;;;;6019134;19;20124;-75
2023/01/24 01:03:48;;;;;;;30.63;15.07;;;;;;;;;;6044627;19;20259;-74
2023/01/24 01:06:05;;;;;;;27.50;12.38;;;;;;;;;;6052332;19;20577;-76
2023/01/24 01:08:11;;;;;;;29.17;14.80;;;;;;;;;;6036898;19;20086;-75
2023/01/24 01:10:25;;;;;;;35.22;15.07;;;;;;;;;;6043733;19;20465;-74
2023/01/24 01:12:37;;;;;;;30.00;13.77;;;;;;;;;;6026759;19;20652;-74
2023/01/24 01:14:48;;;;;;;27.67;13.68;;;;;;;;;;5997398;19;20590;-74
2023/01/24 01:16:56;;;;;;;24.80;12.80;;;;;;;;;;6003030;19;20249;-74
2023/01/24 01:19:07;;;;;;;30.88;14.88;;;;;;;;;;6004447;19;20299;-74
2023/01/24 01:21:15;;;;;;;30.20;13.65;;;;;;;;;;6047316;19;20010;-75
2023/01/24 01:23:24;;;;;;;29.10;14.05;;;;;;;;;;6034835;19;20302;-73
2023/01/24 01:25:31;;;;;;;31.70;13.85;;;;;;;;;;6044407;19;20473;-74
2023/01/24 01:27:41;;;;;;;33.00;15.90;;;;;;;;;;6046828;19;20006;-74
2023/01/24 01:29:53;;;;;;;30.23;15.70;;;;;;;;;;6022981;19;20038;-76
2023/01/24 01:32:02;;;;;;;30.23;13.70;;;;;;;;;;6037328;19;20215;-73
2023/01/24 01:34:11;;;;;;;28.48;13.45;;;;;;;;;;6014162;19;20568;-74
2023/01/24 01:36:22;;;;;;;31.88;14.18;;;;;;;;;;5974478;19;20284;-73
2023/01/24 01:38:28;;;;;;;30.08;14.80;;;;;;;;;;6042052;19;20019;-75
2023/01/24 01:40:40;;;;;;;28.40;14.23;;;;;;;;;;6037578;19;20006;-75
2023/01/24 01:42:57;;;;;;;31.30;15.75;;;;;;;;;;6039138;19;20571;-73
2023/01/24 01:45:41;;;;;;;29.80;13.65;;;;;;;;;;6022048;19;20732;-74
2023/01/24 01:47:48;;;;;;;26.73;13.35;;;;;;;;;;6020283;19;20212;-75
2023/01/24 01:50:03;;;;;;;26.80;12.65;;;;;;;;;;6048090;19;20552;-74
2023/01/24 01:52:15;;;;;;;29.33;14.10;;;;;;;;;;6023723;19;20271;-74
2023/01/24 01:54:25;;;;;;;29.88;14.95;;;;;;;;;;6054700;19;20354;-74
2023/01/24 01:56:36;;;;;;;28.67;13.63;;;;;;;;;;6048180;19;20045;-74
2023/01/24 01:58:44;;;;;;;30.98;14.75;;;;;;;;;;6053762;19;20018;-74
2023/01/24 02:00:51;;;;;;;32.55;14.93;;;;;;;;;;6012039;19;20398;-74
2023/01/24 02:05:25;;;;;;;29.45;13.63;;;;;;;;;;6003164;19;20015;-74
2023/01/24 02:07:42;;;;;;;32.72;14.35;;;;;;;;;;6030050;19;20099;-74
2023/01/24 02:09:54;;;;;;;31.70;14.63;;;;;;;;;;6049122;19;20003;-74
2023/01/24 02:12:01;;;;;;;27.23;14.00;;;;;;;;;;5987461;19;20287;-74
2023/01/24 02:16:53;;;;;;;26.65;12.80;;;;;;;;;;6026223;19;20046;-76
2023/01/24 02:19:03;;;;;;;29.63;12.88;;;;;;;;;;6024589;19;20010;-74
2023/01/24 02:21:15;;;;;;;28.02;13.57;;;;;;;;;;6052439;19;20344;-73
2023/01/24 02:23:27;;;;;;;28.42;12.68;;;;;;;;;;5979453;19;20026;-75
2023/01/24 02:25:40;;;;;;;24.25;11.85;;;;;;;;;;6048616;19;20030;-73
2023/01/24 02:27:58;;;;;;;31.38;14.25;;;;;;;;;;6012388;19;20053;-75
2023/01/24 02:30:15;;;;;;;30.58;13.95;;;;;;;;;;6040838;19;20026;-74
2023/01/24 02:32:27;;;;;;;;;;;;;;;;;;6035911;19;20086;-74
2023/01/24 02:34:34;;;;;;;;;;;;;;;;;;6012680;19;20251;-74
2023/01/24 02:36:54;;;;;;;24.00;11.88;;;;;;;;;;6042679;19;20178;-74
2023/01/24 02:39:11;;;;;;;28.23;12.98;;;;;;;;;;5987811;19;20313;-75
2023/01/24 02:41:25;;;;;;;26.05;13.85;;;;;;;;;;5997646;19;20479;-75
2023/01/24 02:43:47;;;;;;;29.05;13.32;;;;;;;;;;6032250;19;20278;-75
2023/01/24 02:45:56;;;;;;;28.05;12.52;;;;;;;;;;6040626;19;20566;-74
2023/01/24 02:48:01;;;;;;;26.35;12.60;;;;;;;;;;6024690;19;20207;-73
2023/01/24 02:50:18;;;;;;;28.20;13.35;;;;;;;;;;6039379;19;20315;-75
2023/01/24 02:54:42;;;;;;;31.85;14.07;;;;;;;;;;6038566;19;20022;-75
2023/01/24 02:59:20;;;;;;;28.35;12.18;;;;;;;;;;6038405;19;20337;-74
2023/01/24 03:01:31;;;;;;;28.20;13.90;;;;;;;;;;5993531;19;20011;-74
2023/01/24 03:03:39;;;;;;;30.85;13.73;;;;;;;;;;6015846;19;20367;-75
2023/01/24 03:05:56;;;;;;;30.35;13.50;;;;;;;;;;6014992;19;20604;-74
2023/01/24 03:08:06;;;;;;;25.98;13.23;;;;;;;;;;6043225;19;20284;-73
2023/01/24 03:10:22;;;;;;;29.70;15.32;;;;;;;;;;6035928;19;20303;-73
2023/01/24 03:36:19;;;;;;;30.10;14.20;;;;;;;;;;6049008;19;20469;-74
2023/01/24 03:40:48;;;;;;;29.95;15.13;;;;;;;;;;6047565;19;20006;-74
2023/01/24 03:43:07;;;;;;;25.90;12.80;;;;;;;;;;6026612;19;20337;-74
2023/01/24 03:45:15;;;;;;;31.02;13.55;;;;;;;;;;6025899;19;20094;-74
2023/01/24 03:47:33;;;;;;;30.92;14.18;;;;;;;;;;6022934;19;20324;-74
2023/01/24 03:54:21;;;;;;;28.77;15.18;;;;;;;;;;6016300;19;20307;-74
2023/01/24 03:56:30;;;;;;;33.20;15.07;;;;;;;;;;6039820;19;20150;-74
2023/01/24 03:58:56;;;;;;;34.47;16.58;;;;;;;;;;6029482;19;20011;-74
2023/01/24 04:01:16;;;;;;;31.50;15.15;;;;;;;;;;6046097;19;20031;-74
2023/01/24 04:03:29;;;;;;;26.35;13.25;;;;;;;;;;6033322;19;20346;-74
2023/01/24 04:05:39;;;;;;;29.92;15.20;;;;;;;;;;6027531;19;20225;-74
2023/01/24 04:07:47;;;;;;;36.60;17.00;;;;;;;;;;6028931;19;20083;-74
2023/01/24 04:09:55;;;;;;;28.45;13.98;;;;;;;;;;6046017;19;20274;-74
2023/01/24 04:12:01;;;;;;;34.60;16.50;;;;;;;;;;6019056;19;20255;-74
2023/01/24 04:14:20;;;;;;;29.27;13.73;;;;;;;;;;6045775;19;20014;-75
2023/01/24 04:16:30;;;;;;;33.25;16.42;;;;;;;;;;6042257;19;20011;-75
2023/01/24 04:18:51;;;;;;;31.70;15.07;;;;;;;;;;6050695;19;20364;-75
2023/01/24 04:20:57;;;;;;;32.40;15.25;;;;;;;;;;6040382;19;20539;-74
2023/01/24 04:23:11;;;;;;;31.73;16.25;;;;;;;;;;6050054;19;20307;-75
2023/01/24 04:25:23;;;;;;;34.20;15.00;;;;;;;;;;5998683;19;20472;-73
2023/01/24 04:27:36;;;;;;;33.45;14.27;;;;;;;;;;6048003;19;20042;-73
2023/01/24 04:29:55;;;;;;;;;;;;;;;;;;;;;
2023/01/24 04:32:08;;;;;;;33.40;15.23;;;;;;;;;;6014841;19;20199;-75
2023/01/24 04:34:28;;;;;;;34.35;15.27;;;;;;;;;;6007175;19;20442;-75
2023/01/24 04:36:36;;;;;;;30.63;14.23;;;;;;;;;;6030805;19;20419;-74
2023/01/24 04:38:42;;;;;;;30.58;14.57;;;;;;;;;;6017881;19;20013;-74
2023/01/24 04:41:03;;;;;;;28.05;14.65;;;;;;;;;;6015191;19;20315;-73
2023/01/24 04:43:09;;;;;;;35.63;15.43;;;;;;;;;;5998616;19;20517;-75
2023/01/24 04:45:19;;;;;;;33.60;16.55;;;;;;;;;;6032405;19;20462;-75
2023/01/24 04:47:32;;;;;;;;;;;;;;;;;;6041709;19;20014;-75
2023/01/24 04:49:41;;;;;;;31.08;15.07;;;;;;;;;;5986667;19;20074;-74
2023/01/24 04:51:50;;;;;;;34.03;15.73;;;;;;;;;;6024791;19;20569;-75
2023/01/24 04:53:57;;;;;;;33.78;15.68;;;;;;;;;;6042721;19;20949;-73
2023/01/24 04:56:15;;;;;;;33.78;15.50;;;;;;;;;;6011110;19;20191;-73
2023/01/24 04:58:21;;;;;;;30.90;15.70;;;;;;;;;;6047405;19;20534;-73
2023/01/24 05:00:30;;;;;;;32.67;15.52;;;;;;;;;;6048219;19;20725;-74
2023/01/24 05:02:39;;;;;;;34.22;16.20;;;;;;;;;;6049368;19;20211;-75
2023/01/24 05:04:56;;;;;;;32.83;13.38;;;;;;;;;;6043997;19;20028;-74
2023/01/24 05:07:05;;;;;;;28.17;13.95;;;;;;;;;;6034717;19;20010;-74
2023/01/24 05:09:15;;;;;;;27.35;14.95;;;;;;;;;;6024937;19;20333;-73
2023/01/24 05:11:22;;;;;;;27.48;14.05;;;;;;;;;;6013544;19;20494;-74
2023/01/24 05:13:48;;;;;;;31.27;14.52;;;;;;;;;;6047430;19;20302;-74
2023/01/24 05:15:54;;;;;;;33.10;13.70;;;;;;;;;;6043129;19;20535;-73
2023/01/24 05:18:04;;;;;;;32.08;14.45;;;;;;;;;;6048409;19;20443;-74
2023/01/24 05:20:15;;;;;;;31.48;14.77;;;;;;;;;;6042828;19;20045;-74
2023/01/24 05:22:24;;;;;;;30.52;15.00;;;;;;;;;;6044131;19;20665;-74
2023/01/24 05:24:32;;;;;;;32.75;15.63;;;;;;;;;;6034081;19;20474;-74
2023/01/24 05:26:40;;;;;;;29.55;16.02;;;;;;;;;;6045303;19;20456;-74
2023/01/24 05:28:51;;;;;;;29.48;13.57;;;;;;;;;;6047063;19;20089;-74
2023/01/24 05:31:01;;;;;;;31.83;14.60;;;;;;;;;;6025248;19;20669;-74
2023/01/24 05:33:20;;;;;;;32.40;15.23;;;;;;;;;;6041589;19;20086;-74
2023/01/24 05:35:50;;;;;;;30.08;14.45;;;;;;;;;;6003064;19;20006;-74
2023/01/24 05:37:56;;;;;;;33.78;14.60;;;;;;;;;;6036007;19;20491;-74
2023/01/24 05:40:09;;;;;;;29.30;13.80;;;;;;;;;;6018271;19;20007;-74
2023/01/24 05:42:26;;;;;;;33.80;14.07;;;;;;;;;;6034863;19;20492;-75
2023/01/24 05:44:41;;;;;;;27.15;11.48;;;;;;;;;;6038578;19;20021;-74
2023/01/24 05:46:55;;;;;;;27.23;13.25;;;;;;;;;;6030169;19;20268;-74
2023/01/24 05:49:15;;;;;;;29.40;13.27;;;;;;;;;;6015750;19;20014;-75
2023/01/24 05:51:23;;;;;;;27.30;13.32;;;;;;;;;;6035424;19;20024;-74
2023/01/24 05:53:37;;;;;;;35.88;16.00;;;;;;;;;;6038398;19;20631;-74
2023/01/24 05:55:42;;;;;;;30.00;14.68;;;;;;;;;;6021055;19;20600;-75
2023/01/24 05:57:52;;;;;;;28.42;13.65;;;;;;;;;;5992693;19;20191;-74
2023/01/24 06:00:14;;;;;;;29.55;14.50;;;;;;;;;;6039317;19;20530;-74
2023/01/24 06:02:21;;;;;;;31.15;14.40;;;;;;;;;;6016287;19;20272;-73
2023/01/24 06:04:27;;;;;;;31.15;14.60;;;;;;;;;;6014084;19;20559;-74
2023/01/24 06:06:40;;;;;;;26.77;13.02;;;;;;;;;;6038324;19;20215;-73
2023/01/24 06:08:53;;;;;;;29.88;13.70;;;;;;;;;;6036465;19;20011;-73
2023/01/24 06:11:06;;;;;;;27.65;13.80;;;;;;;;;;5998016;19;20280;-73
2023/01/24 06:13:18;;;;;;;29.13;13.23;;;;;;;;;;6033041;19;20507;-73
2023/01/24 06:15:24;;;;;;;33.70;14.10;;;;;;;;;;5953715;19;20404;-73
2023/01/24 06:17:29;;;;;;;33.33;16.13;;;;;;;;;;6028571;19;20011;-73
2023/01/24 06:19:39;;;;;;;27.95;13.68;;;;;;;;;;6041053;19;20036;-76
2023/01/24 06:22:05;;;;;;;32.90;15.50;;;;;;;;;;5997318;19;20178;-73
2023/01/24 06:24:21;;;;;;;28.67;13.35;;;;;;;;;;6039076;19;20338;-73
2023/01/24 06:26:40;;;;;;;35.88;14.68;;;;;;;;;;6043794;19;20453;-73
2023/01/24 06:28:46;;;;;;;29.13;15.05;;;;;;;;;;6042685;19;20726;-74
2023/01/24 06:31:05;;;;;;;28.83;14.30;;;;;;;;;;6023050;19;20304;-75
2023/01/24 06:33:21;;;;;;;28.02;14.15;;;;;;;;;;6021131;19;20368;-77
2023/01/24 06:35:31;;;;;;;29.10;14.45;;;;;;;;;;6038577;19;20373;-76
2023/01/24 06:37:47;;;;;;;29.40;14.95;;;;;;;;;;6047579;19;20293;-77
2023/01/24 06:39:54;;;;;;;24.65;9.90;;;;;;;;;;6045492;19;20783;-76
2023/01/24 06:42:01;;;;;;;32.45;16.95;;;;;;;;;;6042881;19;20668;-76
2023/01/24 06:44:10;;;;;;;27.10;14.20;;;;;;;;;;6046341;19;20331;-76
2023/01/24 06:46:18;;;;;;;28.63;14.10;;;;;;;;;;6044071;19;20543;-76
2023/01/24 06:48:23;;;;;;;31.45;14.27;;;;;;;;;;6048616;19;20018;-75
2023/01/24 06:50:32;;;;;;;26.75;14.20;;;;;;;;;;6050935;19;20031;-75
2023/01/24 06:52:38;;;;;;;32.53;15.82;;;;;;;;;;6052219;19;20308;-76
2023/01/24 06:54:49;;;;;;;32.60;14.40;;;;;;;;;;6068284;19;20144;-76
2023/01/24 06:56:54;;;;;;;27.02;13.18;;;;;;;;;;6047309;19;20017;-76
2023/01/24 06:59:01;;;;;;;31.83;13.60;;;;;;;;;;6049721;19;20647;-76
2023/01/24 07:01:07;;;;;;;29.02;13.60;;;;;;;;;;6048839;19;20011;-76
2023/01/24 07:03:15;;;;;;;29.38;14.02;;;;;;;;;;6053148;19;20523;-75
2023/01/24 07:05:22;;;;;;;31.70;13.52;;;;;;;;;;6019810;19;20401;-74
2023/01/24 07:07:35;;;;;;;32.28;15.43;;;;;;;;;;6060195;19;20032;-75
2023/01/24 07:09:52;;;;;;;26.05;13.30;;;;;;;;;;6007700;19;20031;-74
2023/01/24 07:12:08;;;;;;;28.35;14.02;;;;;;;;;;5999966;19;20046;-75
2023/01/24 07:14:20;;;;;;;31.95;14.95;;;;;;;;;;6023916;19;20207;-74
2023/01/24 07:16:38;;;;;;;31.23;15.05;;;;;;;;;;6021220;19;20267;-75
2023/01/24 07:18:48;;;;;;;34.30;14.80;;;;;;;;;;5989958;19;20018;-74
2023/01/24 07:20:54;;;;;;;32.67;15.65;;;;;;;;;;6043660;19;20427;-75
2023/01/24 07:23:05;;;;;;;29.48;13.60;;;;;;;;;;6051736;19;20397;-76
2023/01/24 07:25:17;;;;;;;25.63;13.35;;;;;;;;;;6066182;19;20549;-76
2023/01/24 07:27:26;;;;;;;31.60;15.13;;;;;;;;;;6073925;19;20016;-76
2023/01/24 07:29:39;;;;;;;31.65;14.55;;;;;;;;;;6058339;19;20045;-74
2023/01/24 07:31:45;;;;;;;27.85;14.82;;;;;;;;;;6061970;19;20011;-74
2023/01/24 07:33:50;;;;;;;29.25;13.68;;;;;;;;;;6055687;19;20535;-73
2023/01/24 07:35:57;;;;;;;31.98;14.15;;;;;;;;;;6051900;19;20025;-73
2023/01/24 07:38:05;;;;;;;27.67;13.90;;;;;;;;;;6050933;19;20125;-74
2023/01/24 07:40:12;;;;;;;27.80;13.43;;;;;;;;;;6056122;19;20229;-74
2023/01/24 07:42:19;;;;;;;31.20;14.55;;;;;;;;;;6059581;19;20015;-74
2023/01/24 07:46:44;;;;;;;28.33;13.45;;;;;;;;;;6057829;19;20031;-75
2023/01/24 07:48:49;;;;;;;29.42;13.68;;;;;;;;;;6064191;19;20230;-75
2023/01/24 07:50:54;;;;;;;28.83;15.65;;;;;;;;;;6055591;19;20382;-74
2023/01/24 07:53:00;;;;;;;28.73;14.63;;;;;;;;;;6059105;19;20029;-74
2023/01/24 07:55:06;;;;;;;31.27;13.60;;;;;;;;;;6054517;19;20218;-74
2023/01/24 07:57:11;;;;;;;33.70;15.20;;;;;;;;;;6049250;19;20181;-74
2023/01/24 07:59:19;;;;;;;32.08;14.52;;;;;;;;;;6024324;19;20484;-74
2023/01/24 08:01:43;;;;;;;30.77;13.98;;;;;;;;;;6050658;19;20043;-74
2023/01/24 08:03:49;;;;;;;30.45;14.45;;;;;;;;;;6048069;19;20852;-74
2023/01/24 08:05:54;;;;;;;27.35;14.40;;;;;;;;;;6048326;19;20706;-74
2023/01/24 08:08:01;;;;;;;31.92;14.93;;;;;;;;;;6051049;19;20024;-74
2023/01/24 08:10:08;;;;;;;30.95;15.15;;;;;;;;;;6052473;19;20002;-74
2023/01/24 08:12:14;;;;;;;31.25;14.55;;;;;;;;;;6048746;19;20133;-74
2023/01/24 08:14:21;;;;;;;29.45;13.95;;;;;;;;;;6049008;19;20068;-73
2023/01/24 08:16:26;;;;;;;33.72;15.75;;;;;;;;;;6053381;19;20253;-73
2023/01/24 08:18:39;;;;;;;35.13;16.40;;;;;;;;;;6046791;19;20209;-73
2023/01/24 08:20:44;;;;;;;31.38;14.27;;;;;;;;;;6049356;19;20503;-74
2023/01/24 08:22:49;;;;;;;32.42;15.10;;;;;;;;;;6050933;19;20577;-75
2023/01/24 08:25:05;;;;;;;35.58;15.48;;;;;;;;;;6048095;19;20463;-76
2023/01/24 08:27:11;;;;;;;30.25;13.57;;;;;;;;;;6046460;19;20310;-73
2023/01/24 08:29:19;;;;;;;29.70;15.25;;;;;;;;;;6028233;19;20507;-73
2023/01/24 08:31:26;;;;;;;32.47;14.93;;;;;;;;;;6048750;19;20310;-73
2023/01/24 08:33:37;;;;;;;36.55;14.60;;;;;;;;;;6051216;19;20561;-73
2023/01/24 08:35:45;;;;;;;32.72;16.00;;;;;;;;;;6051315;19;20530;-73
2023/01/24 08:37:50;;;;;;;30.13;14.68;;;;;;;;;;6055301;19;20006;-73
2023/01/24 08:39:56;;;;;;;31.65;16.15;;;;;;;;;;6051697;19;20374;-74
2023/01/24 08:42:01;;;;;;;36.20;16.63;;;;;;;;;;6059715;19;20450;-74
2023/01/24 08:44:07;;;;;;;34.40;16.10;;;;;;;;;;6053416;19;20007;-74
2023/01/24 08:46:12;;;;;;;34.25;15.38;;;;;;;;;;6059914;19;20397;-74
2023/01/24 08:48:17;;;;;;;34.42;16.15;;;;;;;;;;6052642;19;20015;-75
2023/01/24 08:50:22;;;;;;;35.38;15.98;;;;;;;;;;6051458;19;20064;-74
2023/01/24 08:52:31;;;;;;;35.22;17.00;;;;;;;;;;6052453;19;20478;-74
2023/01/24 08:54:38;;;;;;;32.10;16.42;;;;;;;;;;6053765;19;20215;-74
2023/01/24 08:56:45;;;;;;;32.45;16.00;;;;;;;;;;6049483;19;20506;-73
2023/01/24 08:58:50;;;;;;;39.35;16.23;;;;;;;;;;6048898;19;20419;-73
2023/01/24 09:00:55;;;;;;;35.53;16.25;;;;;;;;;;6044700;19;20523;-74
2023/01/24 09:03:01;;;;;;;35.50;15.30;;;;;;;;;;6053426;19;20015;-73
2023/01/24 09:05:10;;;;;;;39.03;15.85;;;;;;;;;;6046341;19;20021;-74
2023/01/24 09:07:15;;;;;;;36.60;16.27;;;;;;;;;;6047390;19;20448;-73
2023/01/24 09:09:24;;;;;;;33.95;15.55;;;;;;;;;;6045251;19;20190;-74
2023/01/24 09:11:29;;;;;;;35.05;16.23;;;;;;;;;;6047226;19;20506;-74
2023/01/24 09:13:35;;;;;;;34.20;16.75;;;;;;;;;;6049538;19;20469;-74
2023/01/24 09:15:40;;;;;;;36.47;17.30;;;;;;;;;;6051007;19;20479;-74
2023/01/24 09:17:45;;;;;;;33.33;15.18;;;;;;;;;;6050634;19;20013;-74
2023/01/24 09:19:50;;;;;;;34.35;15.38;;;;;;;;;;6051665;19;20027;-74
2023/01/24 09:21:56;;;;;;;39.05;16.17;;;;;;;;;;6050017;19;20480;-74
2023/01/24 09:24:02;;;;;;;38.88;15.90;;;;;;;;;;6053341;19;20007;-74
2023/01/24 09:26:10;;;;;;;36.10;16.42;;;;;;;;;;6054177;19;20180;-74
2023/01/24 09:28:15;;;;;;;35.00;16.35;;;;;;;;;;6043989;19;20352;-74
2023/01/24 09:30:21;;;;;;;38.67;18.48;;;;;;;;;;6048278;19;20423;-74
2023/01/24 09:32:28;;;;;;;38.67;17.10;;;;;;;;;;6045524;19;20561;-74
2023/01/24 09:34:33;;;;;;;33.53;17.27;;;;;;;;;;6045801;19;20587;-75
2023/01/24 09:59:29;;;;;;;31.88;13.63;;;;;;;;;;5968426;19;19921;-75
2023/01/24 10:09:12;;;;;;;35.13;15.07;;;;;;;;;;5957198;19;20149;-76
2023/01/24 10:12:28;;;;;;;33.70;16.27;;;;;;;;;;5936418;19;20321;-74
2023/01/24 10:21:55;;;;;;;28.60;13.80;;;;;;;;;;5962920;19;20527;-74
2023/01/24 10:50:51;;;;;;;37.33;15.43;;;;;;;;;;5948745;19;20428;-74
2023/01/24 11:06:07;;;;;;;34.08;15.05;;;;;;;;;;5924273;19;20526;-75
2023/01/24 11:29:05;;;;;;;;;;;;;;;;;;;;;
2023/01/24 11:35:30;;;;;;;35.65;14.82;;;;;;;;;;5989759;19;20015;-76
2023/01/24 11:45:31;;;;;;;40.78;17.02;;;;;;;;;;5957268;19;20076;-75
2023/01/24 11:55:16;;;;;;;39.53;15.43;;;;;;;;;;5944731;19;20055;-74
2023/01/24 12:31:44;;;;;;;;;;;;;;;;;;;;;
2023/01/24 12:48:33;;;;;;;25.80;13.55;;;;;;;;;;5931660;19;20026;-75
2023/01/24 12:52:06;;;;;;;;;;;;;;;;;;;;;
2023/01/24 13:01:54;;;;;;;31.00;14.00;;;;;;;;;;5957208;19;21125;-74
2023/01/24 13:08:47;;;;;;;32.45;14.48;;;;;;;;;;5960341;19;20574;-74
2023/01/24 13:18:07;;;;;;;22.20;8.38;;;;;;;;;;5967411;19;20302;-74
2023/01/24 13:21:23;;;;;;;33.38;11.57;;;;;;;;;;5943583;19;20086;-74
2023/01/24 13:34:04;;;;;;;29.65;13.10;;;;;;;;;;5936612;19;20014;-74
2023/01/24 13:37:19;;;;;;;23.90;11.00;;;;;;;;;;5954414;19;20541;-74
2023/01/24 13:46:50;;;;;;;27.67;11.57;;;;;;;;;;5942501;19;20353;-75
2023/01/24 13:49:56;;;;;;;27.90;12.95;;;;;;;;;;5984671;19;20011;-75
2023/01/24 13:56:33;;;;;;;;;;;;;;;;;;;;;
2023/01/24 14:19:33;;;;;;;;;;;;;;;;;;;;;
2023/01/24 14:47:25;;;;;;;;;;;;;;;;;;;;;
2023/01/24 14:57:03;;;;;;;31.50;11.98;;;;;;;;;;5965566;19;20155;-76
2023/01/24 15:14:08;;;;;;;32.25;12.75;;;;;;;;;;5937930;19;20405;-74
2023/01/24 15:20:08;;;;;;;;;;;;;;;;;;;;;
2023/01/24 15:26:55;;;;;;;31.73;13.90;;;;;;;;;;5956551;19;20010;-75
2023/01/24 15:58:47;;;;;;;33.38;15.23;;;;;;;;;;5964932;19;20107;-75
2023/01/24 16:01:49;;;;;;;30.48;14.43;;;;;;;;;;5961984;19;20020;-75
2023/01/24 16:14:11;;;;;;;29.00;13.73;;;;;;;;;;5957220;19;20391;-75
2023/01/24 16:29:52;;;;;;;31.33;13.38;;;;;;;;;;5985436;19;20023;-75
2023/01/24 16:32:42;;;;;;;31.90;14.65;;;;;;;;;;5917187;19;20011;-75
2023/01/24 16:35:50;;;;;;;27.30;12.52;;;;;;;;;;5966053;19;20117;-75
2023/01/24 16:39:18;;;;;;;28.70;13.05;;;;;;;;;;5924025;19;20559;-74
2023/01/24 17:05:25;;;;;;;31.40;14.95;;;;;;;;;;5941029;19;20544;-74
2023/01/24 17:11:34;;;;;;;32.17;15.13;;;;;;;;;;5961090;19;20252;-74
2023/01/24 17:17:53;;;;;;;31.80;14.73;;;;;;;;;;5983309;19;20018;-74
2023/01/24 17:37:48;;;;;;;;;;;;;;;;;;;;;
2023/01/24 17:41:01;;;;;;;35.15;15.18;;;;;;;;;;5918827;19;20532;-76
2023/01/24 17:47:22;;;;;;;40.50;19.08;;;;;;;;;;6020787;19;20007;-76
2023/01/24 17:53:12;;;;;;;35.00;15.65;;;;;;;;;;5940941;19;20022;-76
2023/01/24 17:56:27;;;;;;;39.28;16.80;;;;;;;;;;5963437;19;20009;-76
2023/01/24 18:12:20;;;;;;;32.90;13.95;;;;;;;;;;5959309;19;20289;-75
2023/01/24 18:21:09;;;;;;;33.88;13.60;;;;;;;;;;5983342;19;20014;-76
2023/01/24 18:24:25;;;;;;;36.33;14.88;;;;;;;;;;5962586;19;20051;-76
2023/01/24 18:31:03;;;;;;;;;;;;;;;;;;;;;
2023/01/24 18:40:25;;;;;;;41.53;16.52;;;;;;;;;;5957206;19;20412;-75
2023/01/24 18:45:40;;;;;;;38.92;17.05;;;;;;;;;;5963398;19;20313;-76
2023/01/24 18:47:45;;;;;;;34.63;15.32;;;;;;;;;;6039029;19;20674;-76
2023/01/24 18:49:51;;;;;;;37.58;19.02;;;;;;;;;;6043379;19;20295;-76
2023/01/24 18:51:56;;;;;;;32.45;15.95;;;;;;;;;;6047767;19;20087;-76
2023/01/24 18:54:06;;;;;;;34.80;16.10;;;;;;;;;;6050360;19;20050;-76
2023/01/24 18:56:17;;;;;;;32.45;14.63;;;;;;;;;;6053595;19;20490;-75
2023/01/24 18:58:22;;;;;;;34.55;17.77;;;;;;;;;;6052630;19;20495;-75
2023/01/24 19:00:27;;;;;;;37.60;18.83;;;;;;;;;;6055449;19;20307;-75
2023/01/24 19:02:35;;;;;;;43.33;18.40;;;;;;;;;;6054152;19;20286;-75
2023/01/24 19:04:41;;;;;;;41.35;17.73;;;;;;;;;;6053550;19;20027;-75
2023/01/24 19:06:46;;;;;;;38.70;17.15;;;;;;;;;;6053312;19;20264;-75
2023/01/24 19:08:54;;;;;;;43.17;19.17;;;;;;;;;;6050757;19;20303;-75
2023/01/24 19:11:19;;;;;;;44.33;18.23;;;;;;;;;;6051082;19;20500;-75
2023/01/24 19:13:26;;;;;;;34.10;15.82;;;;;;;;;;6050724;19;20285;-76
2023/01/24 19:15:31;;;;;;;33.40;16.10;;;;;;;;;;6051110;19;20010;-76
2023/01/24 19:17:37;;;;;;;38.70;17.92;;;;;;;;;;6051823;19;20363;-76
2023/01/24 19:19:43;;;;;;;36.92;17.95;;;;;;;;;;6050479;19;20260;-76
2023/01/24 19:21:48;;;;;;;38.67;16.38;;;;;;;;;;6050726;19;20409;-76
2023/01/24 19:23:54;;;;;;;41.65;17.02;;;;;;;;;;6052946;19;20078;-75
2023/01/24 19:26:02;;;;;;;35.25;16.13;;;;;;;;;;6054106;19;20712;-75
2023/01/24 19:28:15;;;;;;;35.15;16.92;;;;;;;;;;6050853;19;20526;-77
2023/01/24 19:30:20;;;;;;;37.85;17.45;;;;;;;;;;6051749;19;20200;-77
2023/01/24 19:32:25;;;;;;;35.97;15.52;;;;;;;;;;6050880;19;20253;-75
2023/01/24 19:34:33;;;;;;;33.00;16.55;;;;;;;;;;6054143;19;20216;-76
2023/01/24 19:36:38;;;;;;;36.17;18.05;;;;;;;;;;6053113;19;20297;-76
2023/01/24 19:38:44;;;;;;;36.00;16.58;;;;;;;;;;6027267;19;20155;-76
2023/01/24 19:40:49;;;;;;;33.22;16.73;;;;;;;;;;6048220;19;20014;-76
2023/01/24 19:42:54;;;;;;;40.35;18.10;;;;;;;;;;6054401;19;20027;-77
2023/01/24 19:45:10;;;;;;;33.83;16.65;;;;;;;;;;6052624;19;20257;-75
2023/01/24 19:47:33;;;;;;;;;;;;;;;;;;6032393;19;20045;-76
2023/01/24 20:06:23;;;;;;;34.85;16.58;;;;;;;;;;5947670;19;20152;-76
2023/01/24 20:08:28;;;;;;;34.95;16.65;;;;;;;;;;6049085;19;20022;-77
2023/01/24 20:10:35;;;;;;;40.35;16.05;;;;;;;;;;6056820;19;20031;-77
2023/01/24 20:12:42;;;;;;;36.08;15.85;;;;;;;;;;6055667;19;20243;-75
2023/01/24 20:14:50;;;;;;;36.85;16.63;;;;;;;;;;6055383;19;20295;-76
2023/01/24 20:17:09;;;;;;;37.13;17.83;;;;;;;;;;6004010;19;20510;-74
2023/01/24 20:22:12;;;;;;;37.47;17.48;;;;;;;;;;6024141;19;20221;-75
2023/01/24 20:24:36;;;;;;;38.00;17.20;;;;;;;;;;6010058;19;20557;-75
2023/01/24 20:27:02;;;;;;;39.97;18.38;;;;;;;;;;6033192;19;20348;-73
2023/01/24 20:29:12;;;;;;;34.33;17.02;;;;;;;;;;6034479;19;20467;-74
2023/01/24 20:31:29;;;;;;;40.05;17.92;;;;;;;;;;6020240;19;20708;-75
2023/01/24 20:33:39;;;;;;;35.55;16.10;;;;;;;;;;6041191;19;20254;-75
2023/01/24 20:35:48;;;;;;;38.25;16.92;;;;;;;;;;6022077;19;20309;-75
2023/01/24 20:38:09;;;;;;;43.35;19.08;;;;;;;;;;6011501;19;20746;-75
2023/01/24 20:40:19;;;;;;;37.65;18.20;;;;;;;;;;6010056;19;20394;-75
2023/01/24 20:42:31;;;;;;;43.28;17.10;;;;;;;;;;6014769;19;20010;-73
2023/01/24 20:44:37;;;;;;;39.85;17.10;;;;;;;;;;6041876;19;20200;-75
2023/01/24 20:46:53;;;;;;;32.45;16.13;;;;;;;;;;6043792;19;20018;-73
2023/01/24 20:49:04;;;;;;;37.55;16.23;;;;;;;;;;6013236;19;20199;-74
2023/01/24 20:51:18;;;;;;;36.75;15.98;;;;;;;;;;5998624;19;20013;-74
2023/01/24 20:53:31;;;;;;;38.80;16.73;;;;;;;;;;6033153;19;20041;-74
2023/01/24 20:55:37;;;;;;;37.10;17.58;;;;;;;;;;6047740;19;20010;-74
2023/01/24 20:57:51;;;;;;;36.78;17.60;;;;;;;;;;6044681;19;20266;-74
2023/01/24 20:59:56;;;;;;;39.72;17.95;;;;;;;;;;5997036;19;20069;-74
2023/01/24 21:02:10;;;;;;;35.88;17.83;;;;;;;;;;6007646;19;20486;-74
2023/01/24 21:04:27;;;;;;;45.20;19.65;;;;;;;;;;6041288;19;20309;-74
2023/01/24 21:06:46;;;;;;;38.58;17.08;;;;;;;;;;5985254;19;20010;-74
2023/01/24 21:08:56;;;;;;;36.30;17.08;;;;;;;;;;6039825;19;20014;-72
2023/01/24 21:11:21;;;;;;;36.75;16.45;;;;;;;;;;5997733;19;20166;-75
2023/01/24 21:13:36;;;;;;;35.30;14.93;;;;;;;;;;6050863;19;20455;-75
2023/01/24 21:15:54;;;;;;;36.67;18.13;;;;;;;;;;6044199;19;20449;-73